KPIB/PIB METAR and TAF weather

Enter ICAO airport designator
Station Type Date Time Source
KPIB METAR 2021/06/22 21:56 UTC NOAA

KPIB 222156Z AUTO 35010KT 10SM SCT018 OVC025 27/23 A2998 RMK AO2 SLP148 T02670233


Station Type Date Time Source
KPIB Decoded METAR 2021/06/22 21:56 UTC NOAA

Hattiesburg/Laurel, Hattiesburg-Laurel Regional Airport, MS, United States (KPIB) 31-28N 089-20W
Jun 22, 2021 - 05:56 PM EDT / 2021.06.22 2156 UTC
Wind: from the N (350 degrees) at 12 MPH (10 KT):0
Visibility: 10 mile(s):0
Sky conditions: overcast
Temperature: 80.1 F (26.7 C)
Dew Point: 73.9 F (23.3 C)
Relative Humidity: 81%
Pressure (altimeter): 29.98 in. Hg (1015 hPa)
ob: KPIB 222156Z AUTO 35010KT 10SM SCT018 OVC025 27/23 A2998 RMK AO2 SLP148 T02670233
cycle: 22

Station Type Date Time Source
KPIB TAF 2021/06/22 18:24 UTC NOAA

TAF KPIB 221722Z 2218/2318 32003KT P6SM VCSH OVC012
FM221900 36006KT P6SM OVC050
FM230000 03004KT P6SM OVC100
FM230700 03002KT P6SM OVC015
FM230800 03002KT P6SM OVC007
FM231500 VRB03KT P6SM OVC015

Example: see airport list